createdAt,value
2018-06-25T00:01:11.129Z,6.13
2018-06-25T00:03:38.660Z,6.50
2018-06-25T00:06:07.640Z,6.70
2018-06-25T00:08:35.198Z,7.43
2018-06-25T00:11:03.664Z,8.50
2018-06-25T00:13:31.547Z,7.93
2018-06-25T00:15:59.119Z,7.30
2018-06-25T00:18:26.628Z,13.33
2018-06-25T00:20:54.719Z,10.13
2018-06-25T00:23:22.677Z,9.50
2018-06-25T00:25:50.208Z,7.20
2018-06-25T00:28:18.750Z,11.50
2018-06-25T00:30:46.318Z,6.47
2018-06-25T00:33:19.436Z,7.00
2018-06-25T00:35:46.961Z,7.43
2018-06-25T00:38:15.981Z,7.93
2018-06-25T00:40:43.567Z,8.70
2018-06-25T00:43:11.723Z,7.00
2018-06-25T00:45:40.352Z,7.00
2018-06-25T00:48:07.901Z,6.33
2018-06-25T00:50:37.237Z,6.60
2018-06-25T00:53:04.802Z,6.40
2018-06-25T00:55:32.369Z,6.60
2018-06-25T00:58:00.467Z,6.70
2018-06-25T01:00:28.480Z,7.10
2018-06-25T01:02:55.951Z,7.13
2018-06-25T01:05:23.432Z,7.03
2018-06-25T01:07:51.952Z,7.73
2018-06-25T01:10:20.284Z,7.53
2018-06-25T01:12:47.785Z,7.77
2018-06-25T01:15:16.163Z,10.33
2018-06-25T01:17:44.333Z,9.43
2018-06-25T01:20:11.953Z,9.83
2018-06-25T01:22:40.648Z,8.50
2018-06-25T01:25:08.320Z,10.13
2018-06-25T01:27:36.728Z,8.00
2018-06-25T01:30:04.860Z,10.07
2018-06-25T01:32:34.207Z,7.93
2018-06-25T01:35:02.003Z,7.73
2018-06-25T01:37:31.609Z,8.00
2018-06-25T01:40:01.017Z,8.13
2018-06-25T01:42:31.113Z,9.00
2018-06-25T01:44:58.584Z,8.40
2018-06-25T01:47:26.754Z,7.80
2018-06-25T01:49:57.952Z,8.07
2018-06-25T01:52:27.068Z,9.57
2018-06-25T01:54:54.636Z,8.10
2018-06-25T01:57:22.865Z,10.67
2018-06-25T01:59:52.448Z,14.30
2018-06-25T02:02:19.958Z,9.57
2018-06-25T02:14:32.586Z,9.03
2018-06-25T02:17:00.193Z,9.00
2018-06-25T02:19:29.012Z,9.67
2018-06-25T02:21:56.690Z,8.97
2018-06-25T02:24:24.843Z,9.23
2018-06-25T02:26:53.477Z,8.57
2018-06-25T02:29:23.061Z,9.67
2018-06-25T02:31:51.222Z,8.80
2018-06-25T02:34:18.806Z,10.00
2018-06-25T02:36:46.346Z,10.13
2018-06-25T02:39:15.381Z,9.63
2018-06-25T02:41:43.811Z,8.90
2018-06-25T02:44:11.313Z,12.10
2018-06-25T02:46:39.595Z,9.70
2018-06-25T02:49:07.608Z,8.90
2018-06-25T02:51:35.111Z,8.93
2018-06-25T02:54:02.739Z,10.20
2018-06-25T02:56:30.393Z,8.33
2018-06-25T02:58:58.455Z,9.70
2018-06-25T03:01:27.703Z,8.90
2018-06-25T03:03:56.530Z,8.07
2018-06-25T03:06:25.251Z,8.37
2018-06-25T03:08:57.500Z,8.50
2018-06-25T03:11:25.800Z,9.70
2018-06-25T03:13:53.608Z,8.53
2018-06-25T03:16:21.902Z,8.30
2018-06-25T03:18:50.960Z,7.27
2018-06-25T03:21:18.629Z,7.80
2018-06-25T03:23:46.156Z,10.10
2018-06-25T03:26:14.820Z,9.77
2018-06-25T03:28:42.269Z,8.57
2018-06-25T03:31:09.872Z,8.07
2018-06-25T03:33:37.410Z,6.50
2018-06-25T03:36:05.101Z,10.07
2018-06-25T03:38:33.230Z,5.73
2018-06-25T03:41:00.772Z,6.93
2018-06-25T03:43:29.151Z,9.20
2018-06-25T03:45:57.621Z,6.50
2018-06-25T03:48:25.308Z,7.40
2018-06-25T03:50:59.523Z,7.30
2018-06-25T03:53:27.949Z,6.63
2018-06-25T03:55:56.551Z,6.43
2018-06-25T03:58:24.184Z,8.57
2018-06-25T04:00:51.969Z,7.07
2018-06-25T04:03:19.512Z,6.40
2018-06-25T04:05:47.011Z,7.53
2018-06-25T04:08:15.114Z,6.30
2018-06-25T04:10:42.698Z,7.70
2018-06-25T04:13:10.285Z,8.33
2018-06-25T04:15:38.496Z,7.93
2018-06-25T04:18:06.855Z,5.87
2018-06-25T04:20:34.361Z,6.30
2018-06-25T04:23:01.899Z,6.20
2018-06-25T04:25:30.717Z,8.10
2018-06-25T04:28:00.601Z,12.27
2018-06-25T04:30:29.094Z,7.93
2018-06-25T04:32:56.724Z,6.73
2018-06-25T04:35:24.644Z,7.20
2018-06-25T04:37:52.714Z,8.60
2018-06-25T04:40:21.630Z,6.47
2018-06-25T04:42:49.293Z,8.07
2018-06-25T04:45:16.865Z,5.30
2018-06-25T04:47:44.500Z,5.23
2018-06-25T04:50:13.625Z,7.10
2018-06-25T04:52:41.304Z,6.00
2018-06-25T04:55:08.703Z,5.70
2018-06-25T04:57:36.514Z,4.90
2018-06-25T05:00:04.848Z,9.70
2018-06-25T05:02:32.898Z,6.57
2018-06-25T05:05:00.487Z,11.67
2018-06-25T05:07:27.918Z,5.93
2018-06-25T05:09:56.033Z,6.10
2018-06-25T05:12:24.800Z,5.07
2018-06-25T05:14:52.484Z,5.20
2018-06-25T05:17:20.632Z,5.63
2018-06-25T05:19:50.211Z,6.43
2018-06-25T05:22:18.748Z,7.63
2018-06-25T05:24:46.296Z,4.00
2018-06-25T05:27:16.468Z,3.60
2018-06-25T05:29:44.167Z,3.33
2018-06-25T05:32:11.661Z,4.27
2018-06-25T05:34:39.456Z,8.77
2018-06-25T05:37:07.848Z,6.83
2018-06-25T05:39:36.461Z,4.13
2018-06-25T05:42:05.226Z,7.90
2018-06-25T05:44:34.802Z,5.30
2018-06-25T05:47:02.402Z,7.17
2018-06-25T05:49:31.177Z,7.57
2018-06-25T05:52:00.447Z,4.47
2018-06-25T05:54:29.207Z,11.87
2018-06-25T05:56:57.412Z,4.43
2018-06-25T05:59:25.015Z,4.63
2018-06-25T06:01:53.297Z,3.70
2018-06-25T06:04:22.904Z,4.77
2018-06-25T06:06:52.094Z,3.40
2018-06-25T06:09:19.670Z,3.43
2018-06-25T06:11:47.240Z,5.87
2018-06-25T06:14:16.515Z,3.13
2018-06-25T06:16:44.122Z,6.13
2018-06-25T06:19:11.592Z,4.23
2018-06-25T06:21:41.212Z,4.20
2018-06-25T06:24:09.898Z,4.57
2018-06-25T06:26:38.459Z,5.63
2018-06-25T06:29:05.974Z,2.83
2018-06-25T06:31:33.603Z,2.57
2018-06-25T06:34:01.264Z,3.30
2018-06-25T06:36:30.875Z,4.30
2018-06-25T06:38:59.571Z,4.97
2018-06-25T06:41:27.212Z,3.23
2018-06-25T06:43:55.648Z,4.03
2018-06-25T06:46:23.806Z,4.13
2018-06-25T06:48:52.441Z,4.50
2018-06-25T06:51:21.158Z,5.10
2018-06-25T06:53:50.800Z,4.57
2018-06-25T06:56:18.371Z,2.57
2018-06-25T06:58:45.973Z,3.20
2018-06-25T07:01:13.536Z,3.20
2018-06-25T07:03:42.671Z,2.43
2018-06-25T07:06:10.356Z,3.60
2018-06-25T07:08:38.914Z,2.10
2018-06-25T07:11:06.455Z,3.43
2018-06-25T07:13:33.965Z,6.47
2018-06-25T07:16:02.616Z,5.60
2018-06-25T07:18:30.465Z,4.30
2018-06-25T07:20:58.737Z,6.60
2018-06-25T07:23:27.603Z,1.70
2018-06-25T07:25:56.592Z,4.00
2018-06-25T07:28:24.737Z,3.10
2018-06-25T07:30:53.201Z,5.73
2018-06-25T07:33:20.660Z,7.00
2018-06-25T07:35:48.901Z,10.90
2018-06-25T07:38:16.440Z,4.53
2018-06-25T07:40:44.179Z,3.50
2018-06-25T07:43:11.843Z,2.30
2018-06-25T07:45:40.010Z,2.60
2018-06-25T07:48:08.136Z,4.83
2018-06-25T07:50:35.781Z,4.73
2018-06-25T07:53:04.411Z,4.00
2018-06-25T07:55:31.925Z,2.57
2018-06-25T07:58:00.053Z,5.53
2018-06-25T08:00:28.247Z,4.53
2018-06-25T08:02:55.944Z,2.30
2018-06-25T08:05:24.037Z,1.30
2018-06-25T08:07:52.808Z,3.77
2018-06-25T08:10:21.940Z,4.93
2018-06-25T08:12:49.504Z,3.27
2018-06-25T08:15:18.210Z,2.80
2018-06-25T08:17:45.746Z,2.93
2018-06-25T08:20:13.781Z,2.20
2018-06-25T08:22:41.418Z,3.20
2018-06-25T08:25:08.961Z,1.50
2018-06-25T08:27:36.662Z,2.63
2018-06-25T08:30:05.436Z,1.63
2018-06-25T08:32:32.988Z,2.43
2018-06-25T08:35:01.644Z,1.80
2018-06-25T08:37:29.370Z,1.27
2018-06-25T08:39:57.070Z,1.73
2018-06-25T08:42:25.356Z,2.20
2018-06-25T08:44:53.002Z,5.93
2018-06-25T08:47:20.595Z,4.10
2018-06-25T08:49:48.218Z,1.90
2018-06-25T08:52:16.180Z,1.50
2018-06-25T08:54:44.349Z,2.80
2018-06-25T08:57:13.383Z,2.00
2018-06-25T08:59:40.950Z,1.40
2018-06-25T09:02:08.671Z,2.93
2018-06-25T09:04:37.105Z,2.77
2018-06-25T09:07:04.648Z,1.27
2018-06-25T09:09:32.758Z,3.87
2018-06-25T09:12:00.924Z,2.93
2018-06-25T09:14:28.556Z,3.80
2018-06-25T09:16:56.000Z,6.03
2018-06-25T09:19:23.628Z,1.90
2018-06-25T09:21:51.776Z,2.83
2018-06-25T09:24:20.161Z,1.87
2018-06-25T09:26:48.363Z,1.80
2018-06-25T09:29:15.891Z,2.13
2018-06-25T09:31:44.274Z,1.73
2018-06-25T09:34:18.622Z,3.03
2018-06-25T09:36:46.244Z,1.50
2018-06-25T09:39:13.838Z,1.57
2018-06-25T09:41:42.128Z,1.80
2018-06-25T09:44:10.405Z,2.03
2018-06-25T09:46:39.094Z,3.60
2018-06-25T09:49:06.632Z,3.20
2018-06-25T09:51:34.186Z,2.50
2018-06-25T09:54:02.501Z,1.63
2018-06-25T09:56:32.027Z,3.10
2018-06-25T09:59:00.121Z,1.87
2018-06-25T10:01:28.493Z,2.20
2018-06-25T10:03:56.622Z,1.43
2018-06-25T10:06:24.286Z,2.20
2018-06-25T10:08:52.853Z,2.00
2018-06-25T10:11:22.124Z,4.70
2018-06-25T10:13:51.395Z,2.13
2018-06-25T10:16:20.253Z,3.80
2018-06-25T10:18:47.768Z,1.83
2018-06-25T10:21:15.371Z,3.23
2018-06-25T10:23:43.422Z,5.90
2018-06-25T10:26:12.620Z,3.60
2018-06-25T10:28:42.208Z,2.20
2018-06-25T10:31:10.250Z,2.60
2018-06-25T10:33:39.864Z,4.33
2018-06-25T10:36:12.638Z,8.30
2018-06-25T10:38:41.077Z,6.73
2018-06-25T10:41:08.895Z,7.50
2018-06-25T10:43:36.458Z,2.43
2018-06-25T10:46:04.110Z,5.63
2018-06-25T10:48:31.708Z,6.47
2018-06-25T10:51:00.101Z,4.23
2018-06-25T10:53:27.853Z,3.57
2018-06-25T10:55:56.435Z,2.53
2018-06-25T10:58:24.540Z,3.83
2018-06-25T11:00:52.677Z,1.30
2018-06-25T11:03:20.401Z,1.00
2018-06-25T11:05:47.932Z,2.67
2018-06-25T11:08:16.279Z,4.00
2018-06-25T11:10:43.836Z,1.50
2018-06-25T11:13:12.180Z,1.60
2018-06-25T11:15:39.742Z,2.67
2018-06-25T11:18:08.212Z,2.97
2018-06-25T11:20:35.962Z,2.13
2018-06-25T11:23:04.090Z,1.47
2018-06-25T11:25:34.076Z,1.70
2018-06-25T11:28:02.843Z,1.73
2018-06-25T11:30:30.610Z,5.30
2018-06-25T11:32:58.222Z,2.33
2018-06-25T11:35:26.404Z,1.20
2018-06-25T11:37:54.965Z,1.40
2018-06-25T11:40:22.741Z,1.20
2018-06-25T11:42:52.750Z,1.73
2018-06-25T11:45:21.256Z,1.40
2018-06-25T11:47:50.141Z,1.57
2018-06-25T11:50:22.738Z,6.77
2018-06-25T11:52:50.679Z,0.97
2018-06-25T11:55:21.269Z,1.40
2018-06-25T11:57:49.420Z,2.80
2018-06-25T12:00:17.530Z,1.60
2018-06-25T12:02:45.271Z,1.80
2018-06-25T12:05:12.575Z,5.10
2018-06-25T12:07:40.181Z,1.80
2018-06-25T12:10:07.897Z,2.20
2018-06-25T12:12:36.728Z,2.03
2018-06-25T12:15:05.295Z,1.50
2018-06-25T12:17:32.947Z,1.50
2018-06-25T12:20:00.443Z,1.50
2018-06-25T12:22:28.720Z,1.93
2018-06-25T12:24:56.364Z,3.23
2018-06-25T12:27:24.283Z,7.00
2018-06-25T12:29:52.375Z,4.10
2018-06-25T12:32:19.949Z,1.50
2018-06-25T12:34:50.565Z,6.80
2018-06-25T12:50:23.510Z,5.00
2018-06-25T12:52:51.113Z,2.60
2018-06-25T12:55:21.538Z,1.77
2018-06-25T12:57:49.774Z,1.57
2018-06-25T13:00:18.624Z,1.30
2018-06-25T13:02:48.879Z,1.77
2018-06-25T13:05:21.067Z,1.30
2018-06-25T13:07:50.084Z,2.93
2018-06-25T13:10:18.174Z,3.13
2018-06-25T13:12:46.294Z,2.47
2018-06-25T13:15:14.044Z,1.57
2018-06-25T13:17:41.840Z,3.47
2018-06-25T13:20:11.060Z,1.60
2018-06-25T13:22:38.654Z,3.27
2018-06-25T13:25:06.869Z,4.23
2018-06-25T13:27:34.257Z,2.23
2018-06-25T13:30:02.173Z,2.70
2018-06-25T13:32:29.816Z,1.40
2018-06-25T13:34:57.391Z,3.03
2018-06-25T13:37:25.045Z,5.10
2018-06-25T13:39:54.501Z,1.60
2018-06-25T13:42:22.098Z,2.90
2018-06-25T13:44:50.387Z,1.60
2018-06-25T13:47:18.068Z,17.63
2018-06-25T13:49:45.610Z,13.97
2018-06-25T13:52:13.757Z,4.90
2018-06-25T13:54:41.374Z,3.70
2018-06-25T13:57:08.825Z,1.50
2018-06-25T13:59:36.348Z,1.93
2018-06-25T14:02:04.030Z,1.57
2018-06-25T14:04:33.331Z,2.27
2018-06-25T14:07:03.130Z,27.77
2018-06-25T14:09:32.033Z,7.40
2018-06-25T14:12:00.271Z,3.20
2018-06-25T14:14:28.258Z,3.30
2018-06-25T14:16:56.904Z,11.90
2018-06-25T14:19:24.363Z,6.63
2018-06-25T14:21:52.180Z,2.50
2018-06-25T14:24:27.618Z,6.60
2018-06-25T14:27:00.962Z,8.53
2018-06-25T14:29:30.557Z,7.60
2018-06-25T14:32:04.017Z,3.90
2018-06-25T14:34:32.896Z,2.60
2018-06-25T14:37:02.503Z,6.30
2018-06-25T14:39:31.758Z,2.00
2018-06-25T14:41:59.185Z,3.77
2018-06-25T14:44:27.531Z,3.97
2018-06-25T14:46:55.484Z,6.57
2018-06-25T14:49:22.892Z,3.83
2018-06-25T14:51:50.951Z,2.43
2018-06-25T14:54:18.678Z,2.80
2018-06-25T14:56:47.300Z,2.17
2018-06-25T14:59:15.900Z,2.40
2018-06-25T15:01:44.530Z,3.73
2018-06-25T15:04:13.370Z,4.93
2018-06-25T15:06:42.619Z,4.90
2018-06-25T15:09:11.942Z,1.70
2018-06-25T15:11:39.753Z,2.83
2018-06-25T15:14:08.337Z,3.13
2018-06-25T15:16:39.957Z,3.70
2018-06-25T15:19:07.490Z,3.23
2018-06-25T15:21:35.037Z,15.43
2018-06-25T15:24:02.658Z,10.70
2018-06-25T15:26:30.988Z,3.53
2018-06-25T15:28:58.568Z,7.93
2018-06-25T15:31:26.806Z,2.70
2018-06-25T15:33:54.433Z,4.67
2018-06-25T15:36:22.513Z,3.90
2018-06-25T15:38:50.137Z,6.97
2018-06-25T15:41:18.049Z,6.77
2018-06-25T15:43:47.734Z,3.93
2018-06-25T15:46:16.017Z,3.50
2018-06-25T15:48:46.139Z,4.10
2018-06-25T15:51:14.706Z,4.77
2018-06-25T15:53:42.339Z,3.60
2018-06-25T15:56:09.871Z,9.90
2018-06-25T15:58:37.410Z,21.00
2018-06-25T16:01:06.285Z,10.87
2018-06-25T16:03:35.324Z,30.93
2018-06-25T16:06:03.937Z,25.33
2018-06-25T16:08:31.552Z,19.53
2018-06-25T16:10:59.862Z,18.73
2018-06-25T16:13:27.646Z,10.50
2018-06-25T16:15:55.167Z,11.50
2018-06-25T16:18:22.728Z,7.00
2018-06-25T16:20:50.384Z,3.90
2018-06-25T16:23:18.029Z,5.33
2018-06-25T16:25:47.429Z,6.90
2018-06-25T16:28:16.064Z,12.50
2018-06-25T16:30:44.383Z,21.70
2018-06-25T16:33:13.110Z,7.47
2018-06-25T16:35:41.505Z,9.30
2018-06-25T16:38:09.629Z,3.13
2018-06-25T16:40:37.309Z,11.00
2018-06-25T16:43:06.161Z,7.47
2018-06-25T16:45:33.608Z,7.17
2018-06-25T16:48:01.195Z,4.80
2018-06-25T16:50:28.778Z,13.60
2018-06-25T16:52:56.455Z,10.83
2018-06-25T16:55:26.530Z,24.73
2018-06-25T16:57:55.389Z,28.50
2018-06-25T17:00:25.336Z,10.20
2018-06-25T17:02:58.128Z,16.57
2018-06-25T17:05:27.442Z,13.57
2018-06-25T17:07:55.339Z,7.83
2018-06-25T17:10:24.896Z,9.07
2018-06-25T17:12:52.781Z,10.70
2018-06-25T17:15:20.749Z,6.70
2018-06-25T17:17:48.583Z,16.33
2018-06-25T17:20:16.717Z,20.90
2018-06-25T17:22:45.829Z,14.13
2018-06-25T17:25:15.686Z,19.50
2018-06-25T17:27:43.844Z,8.40
2018-06-25T17:30:11.412Z,5.60
2018-06-25T17:32:39.304Z,4.20
2018-06-25T17:35:06.877Z,30.77
2018-06-25T17:37:38.140Z,28.37
2018-06-25T17:40:05.656Z,19.30
2018-06-25T17:42:33.315Z,7.07
2018-06-25T17:45:01.556Z,5.77
2018-06-25T17:47:29.548Z,8.23
2018-06-25T17:49:58.727Z,8.10
2018-06-25T17:52:26.384Z,7.60
2018-06-25T17:54:54.123Z,9.90
2018-06-25T17:57:22.294Z,5.63
2018-06-25T17:59:50.920Z,11.10
2018-06-25T18:02:18.744Z,9.13
2018-06-25T18:04:46.284Z,9.50
2018-06-25T18:07:13.927Z,6.50
2018-06-25T18:09:41.606Z,13.27
2018-06-25T18:12:09.112Z,20.13
2018-06-25T18:14:36.982Z,13.03
2018-06-25T18:17:05.440Z,24.97
2018-06-25T18:19:34.246Z,13.07
2018-06-25T18:22:02.860Z,9.60
2018-06-25T18:24:30.695Z,18.33
2018-06-25T18:26:58.763Z,14.73
2018-06-25T18:29:26.362Z,23.00
2018-06-25T18:31:54.046Z,13.23
2018-06-25T18:34:21.958Z,22.53
2018-06-25T18:36:49.527Z,8.60
2018-06-25T18:39:16.986Z,16.33
2018-06-25T18:41:44.489Z,26.80
2018-06-25T18:44:12.030Z,17.10
2018-06-25T18:46:39.672Z,10.10
2018-06-25T18:49:07.252Z,15.50
2018-06-25T18:51:35.595Z,9.50
2018-06-25T18:54:03.071Z,9.73
2018-06-25T18:56:32.325Z,7.13
2018-06-25T18:59:00.667Z,10.73
2018-06-25T19:01:28.977Z,10.30
2018-06-25T19:03:56.540Z,11.80
2018-06-25T19:06:24.059Z,13.83
2018-06-25T19:08:51.780Z,12.93
2018-06-25T19:11:19.244Z,11.97
2018-06-25T19:23:31.796Z,15.93
2018-06-25T19:25:59.325Z,10.67
2018-06-25T19:28:26.919Z,10.50
2018-06-25T19:30:54.557Z,12.90
2018-06-25T19:33:23.051Z,12.03
2018-06-25T19:35:50.616Z,13.80
2018-06-25T19:38:18.131Z,11.30
2018-06-25T19:40:45.920Z,10.33
2018-06-25T19:43:13.445Z,12.40
2018-06-25T19:45:41.025Z,18.13
2018-06-25T19:48:08.756Z,23.77
2018-06-25T19:50:37.291Z,13.20
2018-06-25T19:53:04.873Z,13.53
2018-06-25T19:55:32.366Z,23.30
2018-06-25T19:58:00.110Z,11.87
2018-06-25T20:00:27.820Z,19.13
2018-06-25T20:02:55.410Z,18.90
2018-06-25T20:05:22.918Z,11.20
2018-06-25T20:07:50.366Z,11.63
2018-06-25T20:10:17.949Z,12.93
2018-06-25T20:12:45.759Z,10.30
2018-06-25T20:15:14.143Z,13.70
2018-06-25T20:17:41.589Z,18.80
2018-06-25T20:20:09.446Z,18.40
2018-06-25T20:22:37.036Z,20.33
2018-06-25T20:25:06.134Z,20.37
2018-06-25T20:27:34.426Z,12.20
2018-06-25T20:30:01.882Z,15.77
2018-06-25T20:32:29.327Z,13.80
2018-06-25T20:34:56.871Z,16.97
2018-06-25T20:37:24.387Z,11.27
2018-06-25T20:39:51.828Z,13.97
2018-06-25T20:42:19.218Z,14.67
2018-06-25T20:44:46.823Z,14.80
2018-06-25T20:47:14.247Z,18.30
2018-06-25T20:49:42.267Z,18.73
2018-06-25T20:52:09.737Z,18.17
2018-06-25T20:54:37.619Z,20.17
2018-06-25T20:57:05.035Z,18.23
2018-06-25T20:59:32.580Z,16.33
2018-06-25T21:02:00.049Z,15.37
2018-06-25T21:04:27.628Z,14.23
2018-06-25T21:06:55.037Z,477.88
2018-06-25T21:09:22.571Z,496.63
2018-06-25T21:11:50.087Z,456.80
2018-06-25T21:14:18.264Z,479.53
2018-06-25T21:16:46.097Z,481.00
2018-06-25T21:19:13.485Z,23.97
2018-06-25T21:21:41.326Z,13.60
2018-06-25T21:24:09.482Z,21.30
2018-06-25T21:26:37.076Z,16.60
2018-06-25T21:29:05.785Z,242.17
2018-06-25T21:31:33.476Z,204.50
2018-06-25T21:34:00.932Z,451.50
2018-06-25T21:36:28.875Z,473.63
2018-06-25T21:38:58.687Z,405.90
2018-06-25T21:41:26.190Z,174.80
2018-06-25T21:43:54.673Z,256.07
2018-06-25T21:46:22.375Z,82.50
2018-06-25T21:48:51.157Z,39.17
2018-06-25T21:51:18.749Z,25.00
2018-06-25T21:53:46.405Z,21.20
2018-06-25T21:56:14.453Z,35.40
2018-06-25T21:58:41.875Z,28.60
2018-06-25T22:01:09.355Z,39.30
2018-06-25T22:03:36.889Z,38.57
2018-06-25T22:06:04.436Z,110.17
2018-06-25T22:08:32.533Z,258.83
2018-06-25T22:10:59.998Z,56.30
2018-06-25T22:13:27.635Z,99.43
2018-06-25T22:15:55.127Z,43.00
2018-06-25T22:28:07.708Z,254.57
2018-06-25T22:30:35.203Z,275.60
2018-06-25T22:33:02.659Z,276.43
2018-06-25T22:35:30.204Z,222.37
2018-06-25T22:37:57.596Z,268.07
2018-06-25T22:40:25.028Z,279.70
2018-06-25T22:42:52.559Z,280.53
2018-06-25T22:45:19.987Z,301.13
2018-06-25T22:47:47.431Z,322.00
2018-06-25T22:50:14.850Z,349.90
2018-06-25T22:52:43.027Z,366.97
2018-06-25T22:55:10.542Z,416.80
2018-06-25T22:57:37.935Z,462.57
2018-06-25T23:00:05.627Z,493.67
2018-06-25T23:02:33.116Z,572.43
2018-06-25T23:05:01.127Z,509.97
2018-06-25T23:07:28.585Z,506.73
2018-06-25T23:09:56.116Z,500.73
2018-06-25T23:12:23.557Z,510.47
2018-06-25T23:14:50.951Z,514.17
2018-06-25T23:17:18.360Z,510.97
2018-06-25T23:19:46.015Z,508.87
2018-06-25T23:31:58.439Z,421.00
2018-06-25T23:34:25.918Z,161.07
2018-06-25T23:36:53.437Z,31.57
2018-06-25T23:39:20.955Z,28.17
2018-06-25T23:41:48.507Z,16.17
2018-06-25T23:44:16.089Z,33.63
2018-06-25T23:46:43.607Z,26.17
2018-06-25T23:49:11.088Z,55.40
2018-06-25T23:51:38.631Z,19.30
2018-06-25T23:54:06.120Z,30.30
2018-06-25T23:56:33.645Z,23.33
2018-06-25T23:59:01.060Z,16.20
